TimeEDT,TemperatureF,Dew PointF,Humidity,Sea Level PressureIn,VisibilityMPH,Wind Direction,Wind SpeedMPH,Gust SpeedMPH,PrecipitationIn,Events,Conditions,WindDirDegrees,DateUTC
12:16 AM,67.8,65.5,92,29.73,10.0,SE,6.9,-,N/A,,Overcast,140,2013-09-10 04:16:00
12:36 AM,66.7,64.4,92,29.74,10.0,Calm,Calm,-,N/A,,Overcast,0,2013-09-10 04:36:00
12:56 AM,66.6,64.6,93,29.73,10.0,SE,3.5,-,N/A,,Overcast,140,2013-09-10 04:56:00
1:16 AM,66.7,65.1,95,29.73,10.0,SSE,6.9,-,N/A,,Overcast,150,2013-09-10 05:16:00
1:36 AM,64.2,62.8,95,29.77,10.0,NNE,15.0,24.2,N/A,,Overcast,20,2013-09-10 05:36:00
1:56 AM,64.6,63.0,94,29.77,10.0,NE,10.4,-,N/A,,Overcast,50,2013-09-10 05:56:00
2:16 AM,65.3,63.5,94,29.76,10.0,ENE,10.4,-,N/A,,Overcast,60,2013-09-10 06:16:00
2:36 AM,65.5,63.7,94,29.74,10.0,East,10.4,-,N/A,,Overcast,100,2013-09-10 06:36:00
2:56 AM,66.4,64.4,93,29.74,10.0,ESE,9.2,-,N/A,,Overcast,110,2013-09-10 06:56:00
3:16 AM,67.5,64.8,91,29.74,10.0,ESE,9.2,-,N/A,,Overcast,120,2013-09-10 07:16:00
3:36 AM,67.5,65.1,92,29.74,10.0,SE,5.8,-,N/A,,Overcast,140,2013-09-10 07:36:00
3:56 AM,67.1,64.9,93,29.75,10.0,SE,5.8,-,N/A,,Overcast,140,2013-09-10 07:56:00
4:16 AM,67.5,65.3,93,29.74,10.0,SE,6.9,-,N/A,,Overcast,140,2013-09-10 08:16:00
4:36 AM,67.5,65.3,93,29.75,10.0,SSE,6.9,-,N/A,,Overcast,150,2013-09-10 08:36:00
4:56 AM,66.6,64.8,94,29.74,10.0,SSE,12.7,16.1,N/A,,Overcast,160,2013-09-10 08:56:00
5:16 AM,66.0,64.6,95,29.75,10.0,SSE,11.5,-,N/A,,Overcast,160,2013-09-10 09:16:00
5:36 AM,66.2,64.8,95,29.75,10.0,South,10.4,-,N/A,,Overcast,170,2013-09-10 09:36:00
5:56 AM,65.7,64.6,96,29.75,7.0,South,8.1,-,N/A,,Scattered Clouds,170,2013-09-10 09:56:00
6:15 AM,65.8,65.3,98,29.75,7.0,South,8.1,-,N/A,,Clear,180,2013-09-10 10:15:00
6:36 AM,66.0,65.3,98,29.75,5.0,South,5.8,-,N/A,,Clear,180,2013-09-10 10:36:00
6:56 AM,66.9,66.2,98,29.75,5.0,SSW,9.2,-,N/A,,Clear,200,2013-09-10 10:56:00
7:15 AM,67.5,66.7,98,29.75,4.0,SSW,8.1,-,N/A,,Clear,200,2013-09-10 11:15:00
7:36 AM,68.5,67.6,97,29.76,4.0,SW,8.1,-,N/A,,Clear,220,2013-09-10 11:36:00
7:56 AM,69.8,68.5,96,29.76,4.0,SSW,8.1,-,N/A,,Clear,210,2013-09-10 11:56:00
8:15 AM,71.2,69.6,95,29.77,5.0,SW,9.2,-,N/A,,Clear,230,2013-09-10 12:15:00
8:36 AM,71.8,69.3,92,29.78,5.0,SW,9.2,-,N/A,,Clear,230,2013-09-10 12:36:00
8:56 AM,71.2,68.7,92,29.78,5.0,WSW,10.4,18.4,N/A,,Clear,240,2013-09-10 12:56:00
9:16 AM,71.6,68.5,90,29.78,7.0,WSW,10.4,19.6,N/A,,Clear,240,2013-09-10 13:16:00
9:36 AM,72.5,68.0,86,29.78,10.0,WSW,11.5,19.6,N/A,,Clear,240,2013-09-10 13:36:00
9:56 AM,72.7,67.5,84,29.79,10.0,WSW,13.8,21.9,N/A,,Clear,250,2013-09-10 13:56:00
10:16 AM,74.5,67.8,80,29.80,10.0,West,15.0,24.2,N/A,,Scattered Clouds,260,2013-09-10 14:16:00
10:36 AM,74.8,67.5,78,29.80,10.0,WSW,11.5,21.9,N/A,,Scattered Clouds,240,2013-09-10 14:36:00
10:56 AM,73.6,67.1,80,29.81,10.0,WSW,10.4,20.7,N/A,,Mostly Cloudy,240,2013-09-10 14:56:00
11:16 AM,74.3,67.3,79,29.81,10.0,WSW,15.0,23.0,N/A,,Overcast,240,2013-09-10 15:16:00
11:36 AM,74.3,67.1,78,29.82,10.0,WSW,17.3,23.0,N/A,,Overcast,250,2013-09-10 15:36:00
11:55 AM,73.8,67.3,80,29.82,10.0,WSW,12.7,25.3,N/A,,Overcast,240,2013-09-10 15:55:00
12:16 PM,73.6,67.3,81,29.83,10.0,WSW,16.1,21.9,N/A,,Overcast,250,2013-09-10 16:16:00
12:36 PM,74.5,67.8,80,29.83,10.0,WSW,11.5,19.6,N/A,,Mostly Cloudy,250,2013-09-10 16:36:00
12:56 PM,73.6,67.6,82,29.83,10.0,WSW,10.4,20.7,N/A,,Scattered Clouds,250,2013-09-10 16:56:00
1:16 PM,73.6,67.5,81,29.83,10.0,WSW,10.4,21.9,N/A,,Clear,240,2013-09-10 17:16:00
1:36 PM,74.8,67.5,78,29.83,10.0,WSW,10.4,19.6,N/A,,Clear,250,2013-09-10 17:36:00
1:56 PM,75.2,67.6,77,29.83,10.0,WSW,12.7,20.7,N/A,,Clear,250,2013-09-10 17:56:00
2:16 PM,76.5,66.7,72,29.82,10.0,WSW,10.4,21.9,N/A,,Clear,250,2013-09-10 18:16:00
2:36 PM,77.0,66.7,70,29.82,10.0,WSW,13.8,21.9,N/A,,Clear,250,2013-09-10 18:36:00
2:56 PM,77.0,66.9,71,29.82,10.0,WSW,16.1,24.2,N/A,,Clear,250,2013-09-10 18:56:00
3:16 PM,77.5,66.9,70,29.82,10.0,WSW,15.0,25.3,N/A,,Clear,250,2013-09-10 19:16:00
3:36 PM,77.0,67.1,71,29.83,10.0,WSW,16.1,23.0,N/A,,Clear,240,2013-09-10 19:36:00
3:55 PM,76.3,66.9,73,29.83,10.0,WSW,16.1,25.3,N/A,,Clear,250,2013-09-10 19:55:00
4:16 PM,76.1,67.1,74,29.84,10.0,WSW,13.8,26.5,N/A,,Clear,240,2013-09-10 20:16:00
4:36 PM,75.7,67.3,75,29.85,10.0,WSW,12.7,23.0,N/A,,Clear,240,2013-09-10 20:36:00
4:55 PM,74.8,67.1,77,29.84,10.0,SW,16.1,20.7,N/A,,Clear,230,2013-09-10 20:55:00
5:16 PM,74.1,67.1,79,29.84,10.0,WSW,11.5,19.6,N/A,,Clear,240,2013-09-10 21:16:00
5:36 PM,75.4,67.3,76,29.84,10.0,SW,10.4,16.1,N/A,,Clear,230,2013-09-10 21:36:00
5:56 PM,74.7,66.9,77,29.83,10.0,SW,9.2,17.3,N/A,,Clear,230,2013-09-10 21:56:00
6:16 PM,73.4,66.2,78,29.85,10.0,WSW,12.7,23.0,N/A,,Scattered Clouds,240,2013-09-10 22:16:00
6:36 PM,73.4,66.4,79,29.86,10.0,WSW,13.8,20.7,N/A,,Overcast,250,2013-09-10 22:36:00
6:56 PM,73.4,66.6,79,29.86,10.0,WSW,11.5,19.6,N/A,,Overcast,240,2013-09-10 22:56:00
7:16 PM,72.5,66.7,82,29.88,10.0,NW,12.7,16.1,N/A,,Overcast,310,2013-09-10 23:16:00
7:36 PM,71.6,66.7,85,29.87,10.0,North,4.6,-,N/A,,Overcast,350,2013-09-10 23:36:00
7:56 PM,71.2,67.1,87,29.89,10.0,North,5.8,-,N/A,,Overcast,350,2013-09-10 23:56:00
8:16 PM,70.3,66.2,87,29.88,10.0,North,6.9,-,N/A,,Overcast,350,2013-09-11 00:16:00
8:35 PM,70.0,67.1,91,29.88,10.0,North,4.6,-,N/A,,Overcast,350,2013-09-11 00:35:00
8:56 PM,69.8,67.5,92,29.90,10.0,NNW,3.5,-,N/A,,Overcast,340,2013-09-11 00:56:00
9:16 PM,69.8,67.5,92,29.91,10.0,NW,4.6,-,N/A,Rain,Rain,320,2013-09-11 01:16:00
9:35 PM,68.9,67.5,95,29.92,7.0,WNW,5.8,-,0.03,Rain,Rain,300,2013-09-11 01:35:00
9:56 PM,67.5,66.2,96,29.92,5.0,West,6.9,-,0.15,Rain,Rain,260,2013-09-11 01:56:00
10:16 PM,67.1,65.8,96,29.92,10.0,WSW,8.1,-,0.03,Rain,Light Rain,250,2013-09-11 02:16:00
10:35 PM,66.4,65.3,96,29.92,10.0,West,6.9,-,0.04,Rain,Light Rain,270,2013-09-11 02:35:00
10:56 PM,66.4,65.3,96,29.93,10.0,WSW,8.1,-,0.05,Rain,Light Rain,240,2013-09-11 02:56:00
11:16 PM,65.8,65.1,98,29.91,10.0,SW,5.8,-,0.01,Rain,Light Rain,230,2013-09-11 03:16:00
11:35 PM,65.7,65.1,98,29.92,10.0,SW,5.8,-,0.01,Rain,Light Rain,230,2013-09-11 03:35:00
11:56 PM,65.7,64.8,97,29.91,10.0,WSW,4.6,-,0.03,Rain,Rain,250,2013-09-11 03:56:00